sensor_id;sensor_type;location;lat;lon;timestamp;pressure;altitude;pressure_sealevel;temperature
70533;BMP180;58088;51.186;17.130;2022-12-05T00:03:51;100620.80;;;4.90
70533;BMP180;58088;51.186;17.130;2022-12-05T00:06:18;100616.00;;;5.00
70533;BMP180;58088;51.186;17.130;2022-12-05T00:08:46;100615.40;;;5.00
70533;BMP180;58088;51.186;17.130;2022-12-05T00:11:24;100618.60;;;5.00
70533;BMP180;58088;51.186;17.130;2022-12-05T00:13:53;100611.00;;;5.00
70533;BMP180;58088;51.186;17.130;2022-12-05T00:16:23;100610.40;;;5.00
70533;BMP180;58088;51.186;17.130;2022-12-05T00:18:50;100611.60;;;5.00
70533;BMP180;58088;51.186;17.130;2022-12-05T00:21:23;100608.60;;;4.96
70533;BMP180;58088;51.186;17.130;2022-12-05T00:23:51;100604.20;;;4.90
70533;BMP180;58088;51.186;17.130;2022-12-05T00:26:18;100600.20;;;4.90
70533;BMP180;58088;51.186;17.130;2022-12-05T00:28:45;100600.80;;;4.92
70533;BMP180;58088;51.186;17.130;2022-12-05T00:31:21;100600.80;;;4.90
70533;BMP180;58088;51.186;17.130;2022-12-05T00:33:49;100595.60;;;4.90
70533;BMP180;58088;51.186;17.130;2022-12-05T00:36:21;100597.00;;;4.90
70533;BMP180;58088;51.186;17.130;2022-12-05T00:38:48;100594.20;;;4.90
70533;BMP180;58088;51.186;17.130;2022-12-05T00:41:22;100601.60;;;5.00
70533;BMP180;58088;51.186;17.130;2022-12-05T00:43:50;100602.60;;;5.00
70533;BMP180;58088;51.186;17.130;2022-12-05T00:46:23;100597.80;;;5.00
70533;BMP180;58088;51.186;17.130;2022-12-05T00:48:52;100596.60;;;5.00
70533;BMP180;58088;51.186;17.130;2022-12-05T00:51:29;100595.60;;;5.00
70533;BMP180;58088;51.186;17.130;2022-12-05T00:54:02;100597.80;;;5.00
70533;BMP180;58088;51.186;17.130;2022-12-05T00:56:30;100591.20;;;4.90
70533;BMP180;58088;51.186;17.130;2022-12-05T00:58:59;100593.80;;;4.90
70533;BMP180;58088;51.186;17.130;2022-12-05T01:01:29;100601.20;;;4.90
70533;BMP180;58088;51.186;17.130;2022-12-05T01:04:02;100605.80;;;4.86
70533;BMP180;58088;51.186;17.130;2022-12-05T01:06:29;100615.20;;;4.80
70533;BMP180;58088;51.186;17.130;2022-12-05T01:08:56;100615.60;;;4.80
70533;BMP180;58088;51.186;17.130;2022-12-05T01:11:25;100611.40;;;4.80
70533;BMP180;58088;51.186;17.130;2022-12-05T01:13:52;100612.40;;;4.80
70533;BMP180;58088;51.186;17.130;2022-12-05T01:16:32;100611.80;;;4.80
70533;BMP180;58088;51.186;17.130;2022-12-05T01:19:06;100616.60;;;4.82
70533;BMP180;58088;51.186;17.130;2022-12-05T01:21:32;100613.00;;;4.82
70533;BMP180;58088;51.186;17.130;2022-12-05T01:23:58;100617.20;;;4.86
70533;BMP180;58088;51.186;17.130;2022-12-05T01:26:24;100612.20;;;4.84
70533;BMP180;58088;51.186;17.130;2022-12-05T01:28:51;100619.80;;;4.80
70533;BMP180;58088;51.186;17.130;2022-12-05T01:31:28;100612.80;;;4.80
70533;BMP180;58088;51.186;17.130;2022-12-05T01:33:57;100618.40;;;4.80
70533;BMP180;58088;51.186;17.130;2022-12-05T01:36:26;100618.40;;;4.80
70533;BMP180;58088;51.186;17.130;2022-12-05T01:38:53;100611.00;;;4.80
70533;BMP180;58088;51.186;17.130;2022-12-05T01:41:31;100606.00;;;4.80
70533;BMP180;58088;51.186;17.130;2022-12-05T01:46:50;100596.20;;;4.80
70533;BMP180;58088;51.186;17.130;2022-12-05T01:49:24;100597.20;;;4.80
70533;BMP180;58088;51.186;17.130;2022-12-05T01:51:57;100605.20;;;4.80
70533;BMP180;58088;51.186;17.130;2022-12-05T01:54:24;100601.80;;;4.80
70533;BMP180;58088;51.186;17.130;2022-12-05T01:57:00;100607.40;;;4.80
70533;BMP180;58088;51.186;17.130;2022-12-05T01:59:33;100600.40;;;4.80
70533;BMP180;58088;51.186;17.130;2022-12-05T02:02:02;100605.20;;;4.80
70533;BMP180;58088;51.186;17.130;2022-12-05T02:04:29;100605.60;;;4.80
70533;BMP180;58088;51.186;17.130;2022-12-05T02:06:55;100596.00;;;4.80
70533;BMP180;58088;51.186;17.130;2022-12-05T02:09:22;100593.40;;;4.76
70533;BMP180;58088;51.186;17.130;2022-12-05T02:12:01;100595.80;;;4.70
70533;BMP180;58088;51.186;17.130;2022-12-05T02:17:40;100582.80;;;4.70
70533;BMP180;58088;51.186;17.130;2022-12-05T02:26:58;100580.60;;;4.62
70533;BMP180;58088;51.186;17.130;2022-12-05T02:29:53;100563.80;;;4.60
70533;BMP180;58088;51.186;17.130;2022-12-05T02:32:33;100567.80;;;4.60
70533;BMP180;58088;51.186;17.130;2022-12-05T02:41:25;100574.40;;;4.64
70533;BMP180;58088;51.186;17.130;2022-12-05T02:44:00;100569.00;;;4.70
70533;BMP180;58088;51.186;17.130;2022-12-05T02:46:31;100573.60;;;4.68
70533;BMP180;58088;51.186;17.130;2022-12-05T02:49:06;100571.00;;;4.70
70533;BMP180;58088;51.186;17.130;2022-12-05T02:51:40;100569.00;;;4.70
70533;BMP180;58088;51.186;17.130;2022-12-05T02:54:15;100571.00;;;4.70
70533;BMP180;58088;51.186;17.130;2022-12-05T02:56:45;100580.20;;;4.70
70533;BMP180;58088;51.186;17.130;2022-12-05T02:59:12;100572.20;;;4.70
70533;BMP180;58088;51.186;17.130;2022-12-05T03:01:38;100573.60;;;4.70
70533;BMP180;58088;51.186;17.130;2022-12-05T03:04:06;100570.20;;;4.70
70533;BMP180;58088;51.186;17.130;2022-12-05T03:06:41;100570.00;;;4.70
70533;BMP180;58088;51.186;17.130;2022-12-05T03:09:23;100565.60;;;4.70
70533;BMP180;58088;51.186;17.130;2022-12-05T03:14:54;100561.80;;;4.70
70533;BMP180;58088;51.186;17.130;2022-12-05T03:17:29;100559.20;;;4.70
70533;BMP180;58088;51.186;17.130;2022-12-05T03:20:16;100566.00;;;4.70
70533;BMP180;58088;51.186;17.130;2022-12-05T03:23:24;100560.60;;;4.70
70533;BMP180;58088;51.186;17.130;2022-12-05T03:32:09;100554.80;;;4.70
70533;BMP180;58088;51.186;17.130;2022-12-05T03:34:48;100560.80;;;4.70
70533;BMP180;58088;51.186;17.130;2022-12-05T03:40:04;100555.20;;;4.70
70533;BMP180;58088;51.186;17.130;2022-12-05T03:42:36;100556.80;;;4.70
70533;BMP180;58088;51.186;17.130;2022-12-05T03:45:15;100556.60;;;4.70
70533;BMP180;58088;51.186;17.130;2022-12-05T03:48:09;100553.20;;;4.70
70533;BMP180;58088;51.186;17.130;2022-12-05T03:50:43;100548.80;;;4.60
70533;BMP180;58088;51.186;17.130;2022-12-05T03:53:18;100546.20;;;4.60
70533;BMP180;58088;51.186;17.130;2022-12-05T03:56:01;100548.40;;;4.60
70533;BMP180;58088;51.186;17.130;2022-12-05T03:58:47;100544.40;;;4.60
70533;BMP180;58088;51.186;17.130;2022-12-05T04:01:17;100542.20;;;4.60
70533;BMP180;58088;51.186;17.130;2022-12-05T04:03:54;100548.80;;;4.52
70533;BMP180;58088;51.186;17.130;2022-12-05T04:06:38;100547.00;;;4.50
70533;BMP180;58088;51.186;17.130;2022-12-05T04:09:19;100542.20;;;4.50
70533;BMP180;58088;51.186;17.130;2022-12-05T04:11:56;100529.20;;;4.44
70533;BMP180;58088;51.186;17.130;2022-12-05T04:17:09;100522.00;;;4.42
70533;BMP180;58088;51.186;17.130;2022-12-05T04:19:52;100527.20;;;4.40
70533;BMP180;58088;51.186;17.130;2022-12-05T04:22:38;100524.80;;;4.44
70533;BMP180;58088;51.186;17.130;2022-12-05T04:25:09;100530.80;;;4.50
70533;BMP180;58088;51.186;17.130;2022-12-05T04:28:37;100534.80;;;4.50
70533;BMP180;58088;51.186;17.130;2022-12-05T04:31:20;100534.60;;;4.50
70533;BMP180;58088;51.186;17.130;2022-12-05T04:33:55;100534.20;;;4.50
70533;BMP180;58088;51.186;17.130;2022-12-05T04:36:59;100532.60;;;4.58
70533;BMP180;58088;51.186;17.130;2022-12-05T04:39:43;100538.00;;;4.70
70533;BMP180;58088;51.186;17.130;2022-12-05T04:42:25;100531.20;;;4.70
70533;BMP180;58088;51.186;17.130;2022-12-05T04:44:57;100532.80;;;4.70
70533;BMP180;58088;51.186;17.130;2022-12-05T04:47:33;100527.00;;;4.70
70533;BMP180;58088;51.186;17.130;2022-12-05T04:50:03;100524.80;;;4.70
70533;BMP180;58088;51.186;17.130;2022-12-05T04:52:32;100527.20;;;4.78
70533;BMP180;58088;51.186;17.130;2022-12-05T04:55:20;100525.00;;;4.78
70533;BMP180;58088;51.186;17.130;2022-12-05T04:58:10;100535.20;;;4.80
70533;BMP180;58088;51.186;17.130;2022-12-05T05:01:13;100544.80;;;4.80
70533;BMP180;58088;51.186;17.130;2022-12-05T05:03:52;100541.60;;;4.78
70533;BMP180;58088;51.186;17.130;2022-12-05T05:06:19;100538.40;;;4.80
70533;BMP180;58088;51.186;17.130;2022-12-05T05:08:53;100535.00;;;4.80
70533;BMP180;58088;51.186;17.130;2022-12-05T05:11:26;100542.00;;;4.80
70533;BMP180;58088;51.186;17.130;2022-12-05T05:13:53;100551.00;;;4.80
70533;BMP180;58088;51.186;17.130;2022-12-05T05:16:31;100549.80;;;4.80
70533;BMP180;58088;51.186;17.130;2022-12-05T05:18:58;100552.60;;;4.80
70533;BMP180;58088;51.186;17.130;2022-12-05T05:21:31;100552.20;;;4.80
70533;BMP180;58088;51.186;17.130;2022-12-05T05:23:59;100547.40;;;4.80
70533;BMP180;58088;51.186;17.130;2022-12-05T05:26:27;100549.20;;;4.80
70533;BMP180;58088;51.186;17.130;2022-12-05T05:28:56;100553.20;;;4.80
70533;BMP180;58088;51.186;17.130;2022-12-05T05:31:23;100552.20;;;4.80
70533;BMP180;58088;51.186;17.130;2022-12-05T05:33:53;100544.00;;;4.80
70533;BMP180;58088;51.186;17.130;2022-12-05T05:36:22;100555.00;;;4.80
70533;BMP180;58088;51.186;17.130;2022-12-05T05:38:54;100556.40;;;4.80
70533;BMP180;58088;51.186;17.130;2022-12-05T05:41:28;100560.60;;;4.82
70533;BMP180;58088;51.186;17.130;2022-12-05T05:43:56;100559.60;;;4.80
70533;BMP180;58088;51.186;17.130;2022-12-05T05:46:26;100567.40;;;4.80
70533;BMP180;58088;51.186;17.130;2022-12-05T05:48:53;100578.00;;;4.80
70533;BMP180;58088;51.186;17.130;2022-12-05T05:51:22;100575.60;;;4.90
70533;BMP180;58088;51.186;17.130;2022-12-05T05:53:50;100570.80;;;4.90
70533;BMP180;58088;51.186;17.130;2022-12-05T05:56:19;100571.00;;;5.00
70533;BMP180;58088;51.186;17.130;2022-12-05T05:58:46;100566.40;;;5.00
70533;BMP180;58088;51.186;17.130;2022-12-05T06:01:17;100569.60;;;5.00
70533;BMP180;58088;51.186;17.130;2022-12-05T06:03:45;100562.80;;;4.90
70533;BMP180;58088;51.186;17.130;2022-12-05T06:06:13;100560.20;;;4.96
70533;BMP180;58088;51.186;17.130;2022-12-05T06:08:43;100566.00;;;5.00
70533;BMP180;58088;51.186;17.130;2022-12-05T06:11:17;100568.80;;;5.08
70533;BMP180;58088;51.186;17.130;2022-12-05T06:13:43;100575.60;;;5.10
70533;BMP180;58088;51.186;17.130;2022-12-05T06:16:14;100575.00;;;5.10
70533;BMP180;58088;51.186;17.130;2022-12-05T06:18:42;100558.40;;;5.10
70533;BMP180;58088;51.186;17.130;2022-12-05T06:21:09;100561.20;;;5.10
70533;BMP180;58088;51.186;17.130;2022-12-05T06:23:38;100564.00;;;5.10
70533;BMP180;58088;51.186;17.130;2022-12-05T06:26:10;100556.60;;;5.00
70533;BMP180;58088;51.186;17.130;2022-12-05T06:28:36;100563.80;;;5.00
70533;BMP180;58088;51.186;17.130;2022-12-05T06:31:17;100565.40;;;5.00
70533;BMP180;58088;51.186;17.130;2022-12-05T06:33:45;100579.60;;;5.00
70533;BMP180;58088;51.186;17.130;2022-12-05T06:36:16;100578.60;;;5.00
70533;BMP180;58088;51.186;17.130;2022-12-05T06:38:43;100572.60;;;5.00
70533;BMP180;58088;51.186;17.130;2022-12-05T06:41:14;100564.00;;;5.10
70533;BMP180;58088;51.186;17.130;2022-12-05T06:43:41;100557.40;;;5.20
70533;BMP180;58088;51.186;17.130;2022-12-05T06:46:10;100564.00;;;5.20
70533;BMP180;58088;51.186;17.130;2022-12-05T06:48:36;100570.00;;;5.22
70533;BMP180;58088;51.186;17.130;2022-12-05T06:51:03;100565.40;;;5.30
70533;BMP180;58088;51.186;17.130;2022-12-05T06:53:29;100567.00;;;5.34
70533;BMP180;58088;51.186;17.130;2022-12-05T06:56:02;100572.60;;;5.32
70533;BMP180;58088;51.186;17.130;2022-12-05T06:58:30;100567.20;;;5.30
70533;BMP180;58088;51.186;17.130;2022-12-05T07:00:56;100568.60;;;5.30
70533;BMP180;58088;51.186;17.130;2022-12-05T07:03:41;100562.20;;;5.30
70533;BMP180;58088;51.186;17.130;2022-12-05T07:06:15;100568.40;;;5.30
70533;BMP180;58088;51.186;17.130;2022-12-05T07:08:41;100569.60;;;5.30
70533;BMP180;58088;51.186;17.130;2022-12-05T07:11:08;100567.00;;;5.30
70533;BMP180;58088;51.186;17.130;2022-12-05T07:13:34;100557.60;;;5.30
70533;BMP180;58088;51.186;17.130;2022-12-05T07:16:01;100559.20;;;5.30
70533;BMP180;58088;51.186;17.130;2022-12-05T07:18:27;100557.60;;;5.30
70533;BMP180;58088;51.186;17.130;2022-12-05T07:20:58;100557.00;;;5.30
70533;BMP180;58088;51.186;17.130;2022-12-05T07:23:26;100557.00;;;5.20
70533;BMP180;58088;51.186;17.130;2022-12-05T07:25:53;100559.20;;;5.20
70533;BMP180;58088;51.186;17.130;2022-12-05T07:28:19;100554.40;;;5.20
70533;BMP180;58088;51.186;17.130;2022-12-05T07:30:45;100557.00;;;5.20
70533;BMP180;58088;51.186;17.130;2022-12-05T07:33:11;100553.00;;;5.20
70533;BMP180;58088;51.186;17.130;2022-12-05T07:35:37;100557.80;;;5.20
70533;BMP180;58088;51.186;17.130;2022-12-05T07:38:04;100563.40;;;5.30
70533;BMP180;58088;51.186;17.130;2022-12-05T07:40:30;100559.00;;;5.30
70533;BMP180;58088;51.186;17.130;2022-12-05T07:42:56;100562.80;;;5.30
70533;BMP180;58088;51.186;17.130;2022-12-05T07:45:22;100568.60;;;5.30
70533;BMP180;58088;51.186;17.130;2022-12-05T07:47:48;100573.60;;;5.30
70533;BMP180;58088;51.186;17.130;2022-12-05T07:50:14;100579.60;;;5.30
70533;BMP180;58088;51.186;17.130;2022-12-05T07:52:41;100578.20;;;5.24
70533;BMP180;58088;51.186;17.130;2022-12-05T07:55:08;100587.00;;;5.30
70533;BMP180;58088;51.186;17.130;2022-12-05T07:57:34;100577.80;;;5.30
70533;BMP180;58088;51.186;17.130;2022-12-05T08:00:00;100581.20;;;5.30
70533;BMP180;58088;51.186;17.130;2022-12-05T08:02:26;100579.40;;;5.30
70533;BMP180;58088;51.186;17.130;2022-12-05T08:04:52;100581.40;;;5.30
70533;BMP180;58088;51.186;17.130;2022-12-05T08:07:18;100575.80;;;5.30
70533;BMP180;58088;51.186;17.130;2022-12-05T08:09:44;100584.00;;;5.30
70533;BMP180;58088;51.186;17.130;2022-12-05T08:12:11;100588.80;;;5.30
70533;BMP180;58088;51.186;17.130;2022-12-05T08:14:37;100590.40;;;5.28
70533;BMP180;58088;51.186;17.130;2022-12-05T08:17:03;100590.80;;;5.30
70533;BMP180;58088;51.186;17.130;2022-12-05T08:19:29;100600.20;;;5.40
70533;BMP180;58088;51.186;17.130;2022-12-05T08:21:56;100592.80;;;5.40
70533;BMP180;58088;51.186;17.130;2022-12-05T08:24:22;100599.80;;;5.40
70533;BMP180;58088;51.186;17.130;2022-12-05T08:26:49;100587.20;;;5.50
70533;BMP180;58088;51.186;17.130;2022-12-05T08:29:20;100591.40;;;5.50
70533;BMP180;58088;51.186;17.130;2022-12-05T08:31:50;100599.80;;;5.50
70533;BMP180;58088;51.186;17.130;2022-12-05T08:34:18;100600.20;;;5.50
70533;BMP180;58088;51.186;17.130;2022-12-05T08:36:45;100599.80;;;5.46
70533;BMP180;58088;51.186;17.130;2022-12-05T08:39:16;100601.40;;;5.50
70533;BMP180;58088;51.186;17.130;2022-12-05T08:41:45;100600.40;;;5.50
70533;BMP180;58088;51.186;17.130;2022-12-05T08:44:13;100601.20;;;5.50
70533;BMP180;58088;51.186;17.130;2022-12-05T08:46:45;100613.80;;;5.56
70533;BMP180;58088;51.186;17.130;2022-12-05T08:49:12;100609.00;;;5.58
70533;BMP180;58088;51.186;17.130;2022-12-05T08:51:40;100612.20;;;5.50
70533;BMP180;58088;51.186;17.130;2022-12-05T08:54:07;100611.00;;;5.60
70533;BMP180;58088;51.186;17.130;2022-12-05T08:56:34;100616.00;;;5.50
70533;BMP180;58088;51.186;17.130;2022-12-05T08:59:00;100617.60;;;5.50
70533;BMP180;58088;51.186;17.130;2022-12-05T09:01:27;100612.60;;;5.60
70533;BMP180;58088;51.186;17.130;2022-12-05T09:04:00;100608.00;;;5.60
70533;BMP180;58088;51.186;17.130;2022-12-05T09:06:27;100599.20;;;5.60
70533;BMP180;58088;51.186;17.130;2022-12-05T09:09:00;100597.40;;;5.60
70533;BMP180;58088;51.186;17.130;2022-12-05T09:11:31;100597.20;;;5.60
70533;BMP180;58088;51.186;17.130;2022-12-05T09:13:59;100593.00;;;5.60
70533;BMP180;58088;51.186;17.130;2022-12-05T09:16:32;100593.20;;;5.60
70533;BMP180;58088;51.186;17.130;2022-12-05T09:18:59;100597.20;;;5.60
70533;BMP180;58088;51.186;17.130;2022-12-05T09:21:29;100591.40;;;5.60
70533;BMP180;58088;51.186;17.130;2022-12-05T09:23:58;100600.80;;;5.60
70533;BMP180;58088;51.186;17.130;2022-12-05T09:26:26;100595.00;;;5.50
70533;BMP180;58088;51.186;17.130;2022-12-05T09:28:53;100590.20;;;5.50
70533;BMP180;58088;51.186;17.130;2022-12-05T09:31:23;100579.60;;;5.50
70533;BMP180;58088;51.186;17.130;2022-12-05T09:33:51;100581.40;;;5.50
70533;BMP180;58088;51.186;17.130;2022-12-05T09:36:24;100577.60;;;5.50
70533;BMP180;58088;51.186;17.130;2022-12-05T09:38:52;100576.00;;;5.50
70533;BMP180;58088;51.186;17.130;2022-12-05T09:47:16;100570.60;;;5.50
70533;BMP180;58088;51.186;17.130;2022-12-05T09:49:54;100565.00;;;5.50
70533;BMP180;58088;51.186;17.130;2022-12-05T09:52:36;100561.80;;;5.58
70533;BMP180;58088;51.186;17.130;2022-12-05T09:55:19;100564.80;;;5.58
70533;BMP180;58088;51.186;17.130;2022-12-05T09:57:57;100570.80;;;5.56
70533;BMP180;58088;51.186;17.130;2022-12-05T10:00:28;100562.80;;;5.60
70533;BMP180;58088;51.186;17.130;2022-12-05T10:03:21;100563.00;;;5.60
70533;BMP180;58088;51.186;17.130;2022-12-05T10:06:25;100565.00;;;5.60
70533;BMP180;58088;51.186;17.130;2022-12-05T10:09:47;100561.60;;;5.62
70533;BMP180;58088;51.186;17.130;2022-12-05T10:15:19;100554.20;;;5.78
70533;BMP180;58088;51.186;17.130;2022-12-05T10:17:56;100549.80;;;5.80
70533;BMP180;58088;51.186;17.130;2022-12-05T10:20:47;100547.00;;;5.80
70533;BMP180;58088;51.186;17.130;2022-12-05T10:24:03;100548.20;;;5.80
70533;BMP180;58088;51.186;17.130;2022-12-05T10:26:36;100546.00;;;5.80
70533;BMP180;58088;51.186;17.130;2022-12-05T10:31:55;100547.80;;;5.90
70533;BMP180;58088;51.186;17.130;2022-12-05T10:34:40;100546.20;;;5.90
70533;BMP180;58088;51.186;17.130;2022-12-05T10:37:17;100546.40;;;5.90
70533;BMP180;58088;51.186;17.130;2022-12-05T10:39:46;100546.00;;;5.90
70533;BMP180;58088;51.186;17.130;2022-12-05T10:42:28;100545.60;;;5.90
70533;BMP180;58088;51.186;17.130;2022-12-05T10:45:01;100544.20;;;5.90
70533;BMP180;58088;51.186;17.130;2022-12-05T10:47:29;100542.00;;;5.90
70533;BMP180;58088;51.186;17.130;2022-12-05T10:50:06;100537.20;;;5.98
70533;BMP180;58088;51.186;17.130;2022-12-05T10:52:34;100540.00;;;6.00
70533;BMP180;58088;51.186;17.130;2022-12-05T10:55:04;100540.60;;;6.00
70533;BMP180;58088;51.186;17.130;2022-12-05T10:57:31;100542.80;;;6.00
70533;BMP180;58088;51.186;17.130;2022-12-05T11:00:10;100539.00;;;6.06
70533;BMP180;58088;51.186;17.130;2022-12-05T11:02:40;100547.00;;;6.10
70533;BMP180;58088;51.186;17.130;2022-12-05T11:05:07;100547.20;;;6.10
70533;BMP180;58088;51.186;17.130;2022-12-05T11:10:40;100541.60;;;6.12
70533;BMP180;58088;51.186;17.130;2022-12-05T11:13:24;100542.40;;;6.20
70533;BMP180;58088;51.186;17.130;2022-12-05T11:15:50;100545.20;;;6.22
70533;BMP180;58088;51.186;17.130;2022-12-05T11:20:51;100542.40;;;6.30
70533;BMP180;58088;51.186;17.130;2022-12-05T11:23:28;100539.40;;;6.30
70533;BMP180;58088;51.186;17.130;2022-12-05T11:25:57;100536.80;;;6.30
70533;BMP180;58088;51.186;17.130;2022-12-05T11:28:35;100536.60;;;6.30
70533;BMP180;58088;51.186;17.130;2022-12-05T11:31:28;100539.80;;;6.32
70533;BMP180;58088;51.186;17.130;2022-12-05T11:34:09;100534.60;;;6.38
70533;BMP180;58088;51.186;17.130;2022-12-05T11:37:23;100533.60;;;6.40
70533;BMP180;58088;51.186;17.130;2022-12-05T11:39:40;100534.20;;;6.40
70533;BMP180;58088;51.186;17.130;2022-12-05T11:56:57;100521.00;;;6.48
70533;BMP180;58088;51.186;17.130;2022-12-05T12:00:17;100521.20;;;6.50
70533;BMP180;58088;51.186;17.130;2022-12-05T12:12:01;100512.60;;;6.62
70533;BMP180;58088;51.186;17.130;2022-12-05T12:38:20;100498.80;;;6.70
70533;BMP180;58088;51.186;17.130;2022-12-05T12:40:56;100501.20;;;6.70
70533;BMP180;58088;51.186;17.130;2022-12-05T12:46:24;100499.20;;;6.80
70533;BMP180;58088;51.186;17.130;2022-12-05T12:49:48;100495.80;;;6.78
70533;BMP180;58088;51.186;17.130;2022-12-05T12:53:05;100499.60;;;6.80
70533;BMP180;58088;51.186;17.130;2022-12-05T12:58:49;100506.00;;;6.90
70533;BMP180;58088;51.186;17.130;2022-12-05T13:01:47;100503.80;;;6.90
70533;BMP180;58088;51.186;17.130;2022-12-05T13:04:52;100504.00;;;6.90
70533;BMP180;58088;51.186;17.130;2022-12-05T13:07:29;100500.00;;;6.90
70533;BMP180;58088;51.186;17.130;2022-12-05T13:10:22;100507.00;;;6.90
70533;BMP180;58088;51.186;17.130;2022-12-05T13:12:52;100507.40;;;6.90
70533;BMP180;58088;51.186;17.130;2022-12-05T13:18:04;100509.20;;;6.90
70533;BMP180;58088;51.186;17.130;2022-12-05T13:20:34;100511.60;;;6.90
70533;BMP180;58088;51.186;17.130;2022-12-05T13:23:03;100513.80;;;6.90
70533;BMP180;58088;51.186;17.130;2022-12-05T13:25:33;100509.20;;;7.00
70533;BMP180;58088;51.186;17.130;2022-12-05T13:28:05;100513.80;;;7.00
70533;BMP180;58088;51.186;17.130;2022-12-05T13:30:34;100519.20;;;7.00
70533;BMP180;58088;51.186;17.130;2022-12-05T13:33:25;100522.60;;;7.00
70533;BMP180;58088;51.186;17.130;2022-12-05T13:36:05;100517.20;;;7.00
70533;BMP180;58088;51.186;17.130;2022-12-05T13:41:59;100511.00;;;7.00
70533;BMP180;58088;51.186;17.130;2022-12-05T13:44:56;100516.80;;;7.00
70533;BMP180;58088;51.186;17.130;2022-12-05T13:50:29;100514.00;;;7.00
70533;BMP180;58088;51.186;17.130;2022-12-05T13:55:58;100514.00;;;7.00
70533;BMP180;58088;51.186;17.130;2022-12-05T14:04:02;100515.20;;;7.02
70533;BMP180;58088;51.186;17.130;2022-12-05T14:09:48;100523.80;;;7.10
70533;BMP180;58088;51.186;17.130;2022-12-05T14:17:29;100515.40;;;7.10
70533;BMP180;58088;51.186;17.130;2022-12-05T14:20:28;100518.00;;;7.10
70533;BMP180;58088;51.186;17.130;2022-12-05T14:23:27;100517.00;;;7.10
70533;BMP180;58088;51.186;17.130;2022-12-05T14:26:05;100514.80;;;7.10
70533;BMP180;58088;51.186;17.130;2022-12-05T14:34:31;100500.40;;;7.00
70533;BMP180;58088;51.186;17.130;2022-12-05T14:37:06;100500.80;;;7.00
70533;BMP180;58088;51.186;17.130;2022-12-05T14:42:28;100504.80;;;7.00
70533;BMP180;58088;51.186;17.130;2022-12-05T14:45:01;100508.80;;;7.00
70533;BMP180;58088;51.186;17.130;2022-12-05T14:47:32;100495.80;;;7.00
70533;BMP180;58088;51.186;17.130;2022-12-05T14:50:48;100502.40;;;7.08
70533;BMP180;58088;51.186;17.130;2022-12-05T14:53:25;100511.00;;;7.00
70533;BMP180;58088;51.186;17.130;2022-12-05T14:59:04;100504.00;;;7.04
70533;BMP180;58088;51.186;17.130;2022-12-05T15:01:51;100510.80;;;7.00
70533;BMP180;58088;51.186;17.130;2022-12-05T15:04:41;100513.40;;;7.00
70533;BMP180;58088;51.186;17.130;2022-12-05T15:07:21;100511.40;;;7.00
70533;BMP180;58088;51.186;17.130;2022-12-05T15:12:43;100514.80;;;7.00
70533;BMP180;58088;51.186;17.130;2022-12-05T15:16:05;100511.00;;;7.00
70533;BMP180;58088;51.186;17.130;2022-12-05T15:18:52;100505.20;;;7.00
70533;BMP180;58088;51.186;17.130;2022-12-05T15:21:33;100506.60;;;6.90
70533;BMP180;58088;51.186;17.130;2022-12-05T15:24:10;100498.00;;;6.90
70533;BMP180;58088;51.186;17.130;2022-12-05T15:26:57;100500.60;;;6.98
70533;BMP180;58088;51.186;17.130;2022-12-05T15:29:26;100504.40;;;7.00
70533;BMP180;58088;51.186;17.130;2022-12-05T15:32:12;100503.60;;;7.00
70533;BMP180;58088;51.186;17.130;2022-12-05T15:34:47;100510.40;;;7.00
70533;BMP180;58088;51.186;17.130;2022-12-05T15:37:22;100505.60;;;7.04
70533;BMP180;58088;51.186;17.130;2022-12-05T15:40:16;100511.40;;;7.02
70533;BMP180;58088;51.186;17.130;2022-12-05T15:42:47;100502.00;;;7.04
70533;BMP180;58088;51.186;17.130;2022-12-05T15:47:42;100502.20;;;7.00
70533;BMP180;58088;51.186;17.130;2022-12-05T15:50:19;100502.40;;;7.06
70533;BMP180;58088;51.186;17.130;2022-12-05T15:52:56;100496.60;;;7.10
70533;BMP180;58088;51.186;17.130;2022-12-05T15:58:33;100497.40;;;7.14
70533;BMP180;58088;51.186;17.130;2022-12-05T16:01:10;100499.40;;;7.20
70533;BMP180;58088;51.186;17.130;2022-12-05T16:03:48;100504.40;;;7.20
70533;BMP180;58088;51.186;17.130;2022-12-05T16:06:36;100501.00;;;7.20
70533;BMP180;58088;51.186;17.130;2022-12-05T16:09:22;100508.60;;;7.28
70533;BMP180;58088;51.186;17.130;2022-12-05T16:12:02;100509.40;;;7.30
70533;BMP180;58088;51.186;17.130;2022-12-05T16:14:37;100512.80;;;7.30
70533;BMP180;58088;51.186;17.130;2022-12-05T16:17:09;100506.40;;;7.30
70533;BMP180;58088;51.186;17.130;2022-12-05T16:19:39;100516.40;;;7.30
70533;BMP180;58088;51.186;17.130;2022-12-05T16:24:45;100508.20;;;7.30
70533;BMP180;58088;51.186;17.130;2022-12-05T16:27:33;100509.40;;;7.40
70533;BMP180;58088;51.186;17.130;2022-12-05T16:32:38;100527.00;;;7.50
70533;BMP180;58088;51.186;17.130;2022-12-05T16:35:32;100525.80;;;7.50
70533;BMP180;58088;51.186;17.130;2022-12-05T16:38:16;100523.80;;;7.50
70533;BMP180;58088;51.186;17.130;2022-12-05T16:43:42;100527.00;;;7.52
70533;BMP180;58088;51.186;17.130;2022-12-05T16:48:45;100521.40;;;7.60
70533;BMP180;58088;51.186;17.130;2022-12-05T16:53:50;100524.20;;;7.60
70533;BMP180;58088;51.186;17.130;2022-12-05T16:58:48;100526.00;;;7.60
70533;BMP180;58088;51.186;17.130;2022-12-05T17:01:21;100530.60;;;7.70
70533;BMP180;58088;51.186;17.130;2022-12-05T17:03:48;100531.00;;;7.70
70533;BMP180;58088;51.186;17.130;2022-12-05T17:06:16;100533.00;;;7.70
70533;BMP180;58088;51.186;17.130;2022-12-05T17:08:50;100532.80;;;7.60
70533;BMP180;58088;51.186;17.130;2022-12-05T17:11:21;100526.40;;;7.60
70533;BMP180;58088;51.186;17.130;2022-12-05T17:13:48;100533.40;;;7.62
70533;BMP180;58088;51.186;17.130;2022-12-05T17:16:16;100537.20;;;7.60
70533;BMP180;58088;51.186;17.130;2022-12-05T17:18:43;100530.20;;;7.60
70533;BMP180;58088;51.186;17.130;2022-12-05T17:21:16;100528.00;;;7.60
70533;BMP180;58088;51.186;17.130;2022-12-05T17:23:45;100527.40;;;7.60
70533;BMP180;58088;51.186;17.130;2022-12-05T17:26:18;100529.00;;;7.50